Time;durP1;ratioP1;P1;durP2;ratioP2;P2;SDS_P1;SDS_P2;PMS_P1;PMS_P2;Temp;Humidity;BMP_temperature;BMP_pressure;BME280_temperature;BME280_humidity;BME280_pressure;Samples;Min_cycle;Max_cycle;Signal;HPM_P1;HPM_P2
2022/06/27 00:02:07;;;;;;;8.48;5.72;;;;;;;-147.27;100.00;65176.34;4976564;28;20055;-54
2022/06/27 00:04:32;;;;;;;11.15;6.25;;;;;;;-147.27;100.00;65176.34;4973136;28;20031;-51
2022/06/27 00:06:58;;;;;;;14.20;6.95;;;;;;;-147.27;100.00;65176.34;4974966;28;20038;-49
2022/06/27 00:09:23;;;;;;;9.38;6.32;;;;;;;-147.27;100.00;65176.34;4977279;28;20054;-50
2022/06/27 00:11:49;;;;;;;13.43;7.15;;;;;;;-147.27;100.00;65176.34;4968043;28;20116;-47
2022/06/27 00:14:14;;;;;;;10.43;6.35;;;;;;;-147.27;100.00;65176.34;4972617;28;20043;-53
2022/06/27 00:16:40;;;;;;;15.85;6.80;;;;;;;-147.27;100.00;65176.34;4974922;28;20117;-48
2022/06/27 00:19:05;;;;;;;14.32;8.05;;;;;;;-147.27;100.00;65176.34;4976699;28;20104;-50
2022/06/27 00:21:31;;;;;;;12.63;7.28;;;;;;;-147.27;100.00;65176.34;4977329;28;20038;-48
2022/06/27 00:23:56;;;;;;;11.30;7.03;;;;;;;-147.27;100.00;65176.34;4975979;28;20035;-49
2022/06/27 00:26:22;;;;;;;13.65;7.13;;;;;;;-147.27;100.00;65176.34;4974002;28;20035;-52
2022/06/27 00:28:47;;;;;;;14.45;7.45;;;;;;;-147.27;100.00;65176.34;4967360;28;20043;-49
2022/06/27 00:31:12;;;;;;;11.90;7.30;;;;;;;-147.27;100.00;65176.34;4965182;28;20039;-49
2022/06/27 00:33:38;;;;;;;14.80;7.60;;;;;;;-147.27;100.00;65176.34;4971881;28;20521;-49
2022/06/27 00:36:04;;;;;;;12.85;6.93;;;;;;;-147.27;100.00;65176.34;4997512;28;20031;-48
2022/06/27 00:38:30;;;;;;;;;;;;;;;-147.27;100.00;65176.34;4975149;28;20038;-48
2022/06/27 00:40:55;;;;;;;18.80;11.40;;;;;;;-147.27;100.00;65176.34;4978472;28;19981;-47
2022/06/27 00:43:21;;;;;;;12.60;7.40;;;;;;;-147.27;100.00;65176.34;4973771;28;20070;-47
2022/06/27 00:45:47;;;;;;;13.68;7.90;;;;;;;-147.27;100.00;65176.34;5006373;28;20065;-49
2022/06/27 00:48:12;;;;;;;17.13;7.53;;;;;;;-147.27;100.00;65176.34;4980743;28;20049;-51
2022/06/27 00:50:39;;;;;;;13.98;7.20;;;;;;;-147.27;100.00;65176.34;4984687;28;20073;-49
2022/06/27 00:53:07;;;;;;;13.10;7.30;;;;;;;-147.27;100.00;65176.34;5004476;28;20030;-48
2022/06/27 00:55:32;;;;;;;13.03;7.30;;;;;;;-147.27;100.00;65176.34;4977313;28;20027;-47
2022/06/27 00:58:00;;;;;;;15.45;7.78;;;;;;;-147.27;100.00;65176.34;4977656;28;20032;-50
2022/06/27 01:00:25;;;;;;;16.50;6.93;;;;;;;-147.27;100.00;65176.34;4979864;28;20050;-51
2022/06/27 01:02:51;;;;;;;12.25;7.07;;;;;;;-147.27;100.00;65176.34;4991997;28;20038;-46
2022/06/27 01:05:16;;;;;;;12.02;6.80;;;;;;;-147.27;100.00;65176.34;4981861;28;20122;-53
2022/06/27 01:07:42;;;;;;;13.70;6.32;;;;;;;-147.27;100.00;65176.34;4999544;28;20123;-47
2022/06/27 01:10:08;;;;;;;10.48;6.53;;;;;;;-147.27;100.00;65176.34;4976706;28;20039;-48
2022/06/27 01:12:34;;;;;;;10.65;6.10;;;;;;;-147.27;100.00;65176.34;4979358;28;20187;-52
2022/06/27 01:15:00;;;;;;;13.90;7.63;;;;;;;-147.27;100.00;65176.34;5021268;28;20049;-48
2022/06/27 01:17:26;;;;;;;20.60;9.30;;;;;;;-147.27;100.00;65176.34;4990408;28;20058;-46
2022/06/27 01:19:52;;;;;;;19.85;9.25;;;;;;;-147.27;100.00;65176.34;4987495;28;20031;-48
2022/06/27 01:22:18;;;;;;;15.30;10.20;;;;;;;-147.27;100.00;65176.34;4999501;28;20031;-51
2022/06/27 01:24:44;;;;;;;17.70;9.65;;;;;;;-147.27;100.00;65176.34;4997617;28;20058;-50
2022/06/27 01:27:10;;;;;;;15.20;8.77;;;;;;;-147.27;100.00;65176.34;4997504;28;20055;-51
2022/06/27 01:29:37;;;;;;;18.27;9.60;;;;;;;-147.27;100.00;65176.34;4977586;28;20039;-48
2022/06/27 01:32:04;;;;;;;20.20;9.90;;;;;;;-147.27;100.00;65176.34;4999742;28;20069;-50
2022/06/27 01:34:33;;;;;;;14.53;9.20;;;;;;;-147.27;100.00;65176.34;4981416;28;20038;-48
2022/06/27 01:36:59;;;;;;;17.47;9.40;;;;;;;-147.27;100.00;65176.34;5005521;28;20055;-51
2022/06/27 01:39:27;;;;;;;17.20;8.90;;;;;;;-147.27;100.00;65176.34;4977804;28;20042;-47
2022/06/27 01:41:59;;;;;;;14.70;8.03;;;;;;;-147.27;100.00;65176.34;4989126;28;20092;-53
2022/06/27 01:44:29;;;;;;;12.17;7.33;;;;;;;-147.27;100.00;65176.34;4998043;28;20038;-48
2022/06/27 01:47:08;;;;;;;13.93;7.43;;;;;;;-147.27;100.00;65176.34;4982505;28;20046;-49
2022/06/27 01:49:38;;;;;;;16.13;8.27;;;;;;;-147.27;100.00;65176.34;5000554;28;20031;-50
2022/06/27 01:52:05;;;;;;;15.38;7.97;;;;;;;-147.27;100.00;65176.34;4981547;28;20042;-49
2022/06/27 01:54:32;;;;;;;12.63;6.93;;;;;;;-147.27;100.00;65176.34;4996693;28;20046;-46
2022/06/27 01:56:59;;;;;;;14.23;8.40;;;;;;;-147.27;100.00;65176.34;5005932;28;20027;-48
2022/06/27 01:59:27;;;;;;;14.10;7.80;;;;;;;-147.27;100.00;65176.34;4969923;28;20035;-52
2022/06/27 02:01:58;;;;;;;17.63;8.23;;;;;;;-147.27;100.00;65176.34;4996571;28;20031;-51
2022/06/27 02:04:26;;;;;;;12.87;7.37;;;;;;;-147.27;100.00;65176.34;4990937;28;20043;-47
2022/06/27 02:06:54;;;;;;;11.80;6.93;;;;;;;-147.27;100.00;65176.34;4977187;28;20027;-50
2022/06/27 02:09:19;;;;;;;14.70;8.47;;;;;;;-147.27;100.00;65176.34;4990805;28;20041;-47
2022/06/27 02:11:47;;;;;;;13.18;7.68;;;;;;;-147.27;100.00;65176.34;5002763;28;20039;-53
2022/06/27 02:14:14;;;;;;;15.57;9.00;;;;;;;-147.27;100.00;65176.34;5001217;28;20058;-49
2022/06/27 02:16:42;;;;;;;;;;;;;;;-147.27;100.00;65176.34;5011690;28;20053;-50
2022/06/27 02:19:09;;;;;;;20.00;8.47;;;;;;;-147.27;100.00;65176.34;4996150;28;19945;-50
2022/06/27 02:21:38;;;;;;;14.03;8.30;;;;;;;-147.27;100.00;65176.34;4987865;28;20274;-53
2022/06/27 02:24:07;;;;;;;20.17;8.63;;;;;;;-147.27;100.00;65176.34;4976332;28;20121;-51
2022/06/27 02:26:33;;;;;;;16.27;8.50;;;;;;;-147.27;100.00;65176.34;4981034;28;20066;-47
2022/06/27 02:29:00;;;;;;;18.48;8.05;;;;;;;-147.27;100.00;65176.34;4974974;28;20035;-53
2022/06/27 02:31:29;;;;;;;15.30;8.20;;;;;;;-147.27;100.00;65176.34;4999738;28;20066;-53
2022/06/27 02:33:57;;;;;;;14.67;8.87;;;;;;;-147.27;100.00;65176.34;4980613;28;20039;-49
2022/06/27 02:36:38;;;;;;;15.13;8.50;;;;;;;-147.27;100.00;65176.34;4996880;28;20035;-49
2022/06/27 02:39:04;;;;;;;17.93;8.33;;;;;;;-147.27;100.00;65176.34;4978928;28;20061;-52
2022/06/27 02:41:33;;;;;;;18.40;8.40;;;;;;;-147.27;100.00;65176.34;4978545;28;20090;-51
2022/06/27 02:44:10;;;;;;;16.30;7.70;;;;;;;-147.27;100.00;65176.34;4999001;28;20043;-54
2022/06/27 02:46:38;;;;;;;12.00;7.53;;;;;;;-147.27;100.00;65176.34;4978822;28;20062;-51
2022/06/27 02:49:04;;;;;;;14.17;7.50;;;;;;;-147.27;100.00;65176.34;5014207;28;20718;-47
2022/06/27 02:51:49;;;;;;;12.20;7.60;;;;;;;-147.27;100.00;65176.34;5000908;28;20055;-51
2022/06/27 02:54:48;;;;;;;12.67;8.00;;;;;;;-147.27;100.00;65176.34;4987152;28;20115;-51
2022/06/27 02:57:25;;;;;;;16.90;8.30;;;;;;;-147.27;100.00;65176.34;4997645;28;20034;-50
2022/06/27 02:59:55;;;;;;;14.83;7.33;;;;;;;-147.27;100.00;65176.34;4980745;28;20027;-50
2022/06/27 03:02:25;;;;;;;13.90;8.20;;;;;;;-147.27;100.00;65176.34;4995595;28;20058;-48
2022/06/27 03:05:12;;;;;;;12.43;7.03;;;;;;;-147.27;100.00;65176.34;4977463;28;20063;-49
2022/06/27 03:07:39;;;;;;;13.52;7.53;;;;;;;-147.27;100.00;65176.34;4975933;28;20057;-49
2022/06/27 03:10:07;;;;;;;15.37;8.23;;;;;;;-147.27;100.00;65176.34;4978896;28;20065;-49
2022/06/27 03:12:32;;;;;;;13.13;8.17;;;;;;;-147.27;100.00;65176.34;4990186;28;20042;-53
2022/06/27 03:14:58;;;;;;;19.13;8.00;;;;;;;-147.27;100.00;65176.34;4981400;28;20043;-48
2022/06/27 03:17:23;;;;;;;20.60;8.13;;;;;;;-147.27;100.00;65176.34;4994344;28;20046;-51
2022/06/27 03:20:09;;;;;;;16.13;8.40;;;;;;;-147.27;100.00;65176.34;4983528;28;20132;-48
2022/06/27 03:22:52;;;;;;;18.17;8.63;;;;;;;-147.27;100.00;65176.34;4994584;28;20023;-50
2022/06/27 03:25:18;;;;;;;17.67;8.80;;;;;;;-147.27;100.00;65176.34;4981122;28;20039;-48
2022/06/27 03:27:44;;;;;;;15.77;8.88;;;;;;;-147.27;100.00;65176.34;5000057;28;20054;-57
2022/06/27 03:30:10;;;;;;;13.95;9.05;;;;;;;-147.27;100.00;65176.34;4978745;28;20035;-50
2022/06/27 03:32:37;;;;;;;15.93;9.77;;;;;;;-147.27;100.00;65176.34;5021193;28;20038;-49
2022/06/27 03:35:07;;;;;;;18.63;9.03;;;;;;;-147.27;100.00;65176.34;5048706;28;20033;-46
2022/06/27 03:37:34;;;;;;;16.30;9.20;;;;;;;-147.27;100.00;65176.34;5043278;28;20033;-50
2022/06/27 03:40:00;;;;;;;15.48;9.98;;;;;;;-147.27;100.00;65176.34;5047462;28;20032;-50
2022/06/27 03:42:30;;;;;;;19.20;9.40;;;;;;;-147.27;100.00;65176.34;5048104;28;20033;-49
2022/06/27 03:44:56;;;;;;;20.33;10.30;;;;;;;-147.27;100.00;65176.34;5046354;28;20026;-48
2022/06/27 03:47:21;;;;;;;17.42;9.95;;;;;;;-147.27;100.00;65176.34;5046420;28;20057;-52
2022/06/27 03:50:07;;;;;;;15.73;9.83;;;;;;;-147.27;100.00;65176.34;5045059;28;20076;-49
2022/06/27 03:52:34;;;;;;;15.20;9.50;;;;;;;-147.27;100.00;65176.34;5048074;28;20025;-48
2022/06/27 03:55:00;;;;;;;19.52;9.20;;;;;;;-147.27;100.00;65176.34;5046087;28;20035;-50
2022/06/27 03:57:26;;;;;;;;;;;;;;;-147.27;100.00;65176.34;5045326;28;20056;-52
2022/06/27 03:59:53;;;;;;;31.80;17.27;;;;;;;-147.27;100.00;65176.34;5045864;28;19948;-48
2022/06/27 04:02:19;;;;;;;27.70;16.90;;;;;;;-147.27;100.00;65176.34;5043263;28;20101;-50
2022/06/27 04:05:11;;;;;;;34.77;16.40;;;;;;;-147.27;100.00;65176.34;5042545;28;20083;-50
2022/06/27 04:07:38;;;;;;;19.23;10.93;;;;;;;-147.27;100.00;65176.34;5042449;28;20025;-52
2022/06/27 04:10:04;;;;;;;49.07;28.43;;;;;;;-147.27;100.00;65176.34;5044103;28;20053;-51
2022/06/27 04:12:30;;;;;;;;;;;;;;;-147.27;100.00;65176.34;5041965;28;20096;-49
2022/06/27 04:15:34;;;;;;;24.07;12.67;;;;;;;-147.27;100.00;65176.34;4979118;28;19929;-53
2022/06/27 04:18:22;;;;;;;62.00;32.67;;;;;;;-147.27;100.00;65176.34;4976603;28;20058;-51
2022/06/27 04:21:06;;;;;;;56.83;30.57;;;;;;;-147.27;100.00;65176.34;5026562;28;20089;-51
2022/06/27 04:23:51;;;;;;;21.60;12.10;;;;;;;-147.27;100.00;65176.34;5045325;28;20098;-50
2022/06/27 04:26:25;;;;;;;40.60;21.43;;;;;;;-147.27;100.00;65176.34;5049976;28;20684;-49
2022/06/27 04:28:51;;;;;;;98.50;50.78;;;;;;;-147.27;100.00;65176.34;5050668;28;20085;-53
2022/06/27 04:31:18;;;;;;;47.33;24.87;;;;;;;-147.27;100.00;65176.34;5048839;28;20040;-53
2022/06/27 04:33:44;;;;;;;49.00;24.13;;;;;;;-147.27;100.00;65176.34;5042368;28;20073;-52
2022/06/27 04:36:10;;;;;;;31.73;16.33;;;;;;;-147.27;100.00;65176.34;5049343;28;20061;-51
2022/06/27 04:38:38;;;;;;;25.70;13.47;;;;;;;-147.27;100.00;65176.34;5050507;28;20033;-51
2022/06/27 04:41:10;;;;;;;20.47;12.07;;;;;;;-147.27;100.00;65176.34;5046760;28;20041;-49
2022/06/27 04:43:38;;;;;;;22.17;12.73;;;;;;;-147.27;100.00;65176.34;5047957;28;20032;-48
2022/06/27 04:46:05;;;;;;;18.77;10.30;;;;;;;-147.27;100.00;65176.34;5046168;28;20059;-49
2022/06/27 04:49:01;;;;;;;23.93;12.43;;;;;;;-147.27;100.00;65176.34;5039757;28;20056;-52
2022/06/27 04:51:27;;;;;;;;;;;;;;;-147.27;100.00;65176.34;5048560;28;20097;-48
2022/06/27 04:53:52;;;;;;;22.10;8.90;;;;;;;-147.27;100.00;65176.34;5046529;28;19916;-49
2022/06/27 04:56:19;;;;;;;21.50;8.75;;;;;;;-147.27;100.00;65176.34;5045622;28;20041;-50
2022/06/27 04:58:45;;;;;;;17.97;9.63;;;;;;;-147.27;100.00;65176.34;5045626;28;20037;-49
2022/06/27 05:01:14;;;;;;;21.87;9.40;;;;;;;-147.27;100.00;65176.34;5045768;28;20022;-57
2022/06/27 05:04:08;;;;;;;18.10;9.70;;;;;;;-147.27;100.00;65176.34;5035074;28;20092;-47
2022/06/27 05:06:37;;;;;;;15.07;8.70;;;;;;;-147.27;100.00;65176.34;5044824;28;20097;-51
2022/06/27 05:09:06;;;;;;;17.07;9.50;;;;;;;-147.27;100.00;65176.34;5050042;28;20029;-50
2022/06/27 05:11:31;;;;;;;19.00;9.23;;;;;;;-147.27;100.00;65176.34;5047776;28;20033;-51
2022/06/27 05:13:57;;;;;;;15.35;9.13;;;;;;;-147.27;100.00;65176.34;5050153;28;20052;-53
2022/06/27 05:16:43;;;;;;;16.57;8.97;;;;;;;-147.27;100.00;65176.34;5039280;28;20056;-50
2022/06/27 05:19:10;;;;;;;17.90;9.13;;;;;;;-147.27;100.00;65176.34;5046840;28;20037;-50
2022/06/27 05:21:36;;;;;;;15.83;9.60;;;;;;;-147.27;100.00;65176.34;5045273;28;20116;-50
2022/06/27 05:24:05;;;;;;;18.57;8.90;;;;;;;-147.27;100.00;65176.34;5044472;28;20056;-52
2022/06/27 05:26:32;;;;;;;18.93;9.37;;;;;;;-147.27;100.00;65176.34;5049175;28;20040;-49
2022/06/27 05:28:57;;;;;;;19.23;9.52;;;;;;;-147.27;100.00;65176.34;5046782;28;20092;-50
2022/06/27 05:31:24;;;;;;;15.00;9.40;;;;;;;-147.27;100.00;65176.34;5045590;28;20041;-50
2022/06/27 05:33:50;;;;;;;18.88;9.60;;;;;;;-147.27;100.00;65176.34;4969577;28;20043;-50
2022/06/27 05:36:15;;;;;;;28.70;10.05;;;;;;;-147.27;100.00;65176.34;4959818;28;20786;-52
2022/06/27 05:38:41;;;;;;;18.80;10.40;;;;;;;-147.27;100.00;65176.34;4960106;29;20031;-47
2022/06/27 05:41:07;;;;;;;20.58;11.27;;;;;;;-147.27;100.00;65176.34;4954875;29;20028;-48
2022/06/27 05:43:34;;;;;;;18.67;9.67;;;;;;;-147.27;100.00;65176.34;4958570;28;20097;-48
2022/06/27 05:46:00;;;;;;;16.48;9.65;;;;;;;-147.27;100.00;65176.34;4959224;28;20032;-52
2022/06/27 05:48:26;;;;;;;20.13;9.90;;;;;;;-147.27;100.00;65176.34;4958082;29;20036;-48
2022/06/27 05:51:24;;;;;;;17.73;9.30;;;;;;;-147.27;100.00;65176.34;4951325;28;20194;-51
2022/06/27 05:53:51;;;;;;;19.30;9.10;;;;;;;-147.27;100.00;65176.34;4956543;29;20123;-47
2022/06/27 05:56:17;;;;;;;17.17;10.30;;;;;;;-147.27;100.00;65176.34;4957241;28;20031;-48
2022/06/27 05:58:43;;;;;;;15.90;9.27;;;;;;;-147.27;100.00;65176.34;4953728;28;20039;-50
2022/06/27 06:01:11;;;;;;;;;;;;;;;-147.27;100.00;65176.34;4958162;29;20042;-50
2022/06/27 06:03:37;;;;;;;21.83;10.10;;;;;;;-147.27;100.00;65176.34;4957587;29;20002;-48
2022/06/27 06:06:06;;;;;;;15.87;9.60;;;;;;;-147.27;100.00;65176.34;4958479;28;20038;-51
2022/06/27 06:08:32;;;;;;;16.50;9.13;;;;;;;-147.27;100.00;65176.34;4957096;29;20036;-51
2022/06/27 06:10:58;;;;;;;17.30;9.67;;;;;;;-147.27;100.00;65176.34;4953034;28;20119;-50
2022/06/27 06:13:25;;;;;;;17.55;10.23;;;;;;;-147.27;100.00;65176.34;4959408;29;20042;-48
2022/06/27 06:15:53;;;;;;;17.30;9.67;;;;;;;-147.27;100.00;65176.34;4955812;28;20038;-49
2022/06/27 06:18:21;;;;;;;18.50;9.40;;;;;;;-147.27;100.00;65176.34;4957686;28;20043;-49
2022/06/27 06:20:47;;;;;;;15.87;9.03;;;;;;;-147.27;100.00;65176.34;4958444;29;20028;-50
2022/06/27 06:23:13;;;;;;;15.93;8.60;;;;;;;-147.27;100.00;65176.34;4954961;29;20051;-55
2022/06/27 06:25:41;;;;;;;;;;;;;;;-147.27;100.00;65176.34;4957241;28;20047;-49
2022/06/27 06:28:07;;;;;;;15.00;9.47;;;;;;;-147.27;100.00;65176.34;4958399;28;19930;-48
2022/06/27 06:30:34;;;;;;;21.87;9.40;;;;;;;-147.27;100.00;65176.34;4955477;28;20047;-51
2022/06/27 06:33:04;;;;;;;15.20;9.27;;;;;;;-147.27;100.00;65176.34;4959355;28;20054;-49
2022/06/27 06:35:32;;;;;;;13.23;9.47;;;;;;;-147.27;100.00;65176.34;4952299;29;20028;-50
2022/06/27 06:38:00;;;;;;;16.43;9.60;;;;;;;-147.27;100.00;65176.34;4956030;28;20043;-51
2022/06/27 06:40:27;;;;;;;17.40;9.57;;;;;;;-147.27;100.00;65176.34;4958077;29;20031;-53
2022/06/27 06:42:54;;;;;;;26.40;9.60;;;;;;;-147.27;100.00;65176.34;4952378;28;20032;-51
2022/06/27 06:45:39;;;;;;;19.27;8.70;;;;;;;-147.27;100.00;65176.34;4953868;28;20039;-48
2022/06/27 06:48:13;;;;;;;20.30;10.97;;;;;;;-147.27;100.00;65176.34;4953819;29;20058;-50
2022/06/27 06:50:38;;;;;;;31.90;17.10;;;;;;;-147.27;100.00;65176.34;4955564;28;20032;-51
2022/06/27 06:53:04;;;;;;;19.52;9.88;;;;;;;-147.27;100.00;65176.34;4957276;29;20056;-52
2022/06/27 06:55:30;;;;;;;14.68;9.20;;;;;;;-147.27;100.00;65176.34;4955080;28;20050;-50
2022/06/27 06:57:56;;;;;;;19.07;9.10;;;;;;;-147.27;100.00;65176.34;4953823;28;20059;-52
2022/06/27 07:00:22;;;;;;;21.98;8.57;;;;;;;-147.27;100.00;65176.34;4954239;28;20043;-47
2022/06/27 07:02:48;;;;;;;16.43;9.80;;;;;;;-147.27;100.00;65176.34;4955260;28;20070;-53
2022/06/27 07:05:16;;;;;;;;;;;;;;;-147.27;100.00;65176.34;4958348;28;20039;-53
2022/06/27 07:07:41;;;;;;;;;;;;;;;-147.27;100.00;65176.34;4953160;28;19929;-49
2022/06/27 07:10:09;;;;;;;21.90;10.73;;;;;;;-147.27;100.00;65176.34;4954442;28;19918;-54
2022/06/27 07:12:36;;;;;;;24.90;14.33;;;;;;;-147.27;100.00;65176.34;4955657;29;20027;-52
2022/06/27 07:15:03;;;;;;;16.53;10.20;;;;;;;-147.27;100.00;65176.34;4954331;28;20046;-52
2022/06/27 07:17:29;;;;;;;17.67;9.87;;;;;;;-147.27;100.00;65176.34;4955906;28;20103;-48
2022/06/27 07:19:56;;;;;;;15.02;9.82;;;;;;;-147.27;100.00;65176.34;4956162;28;20042;-50
2022/06/27 07:22:23;;;;;;;18.60;9.80;;;;;;;-147.27;100.00;65176.34;4956306;29;20044;-48
2022/06/27 07:24:49;;;;;;;16.43;10.60;;;;;;;-147.27;100.00;65176.34;4956163;28;20032;-50
2022/06/27 07:27:16;;;;;;;23.30;11.73;;;;;;;-147.27;100.00;65176.34;4955615;28;20036;-50
2022/06/27 07:29:43;;;;;;;16.57;10.30;;;;;;;-147.27;100.00;65176.34;4956904;28;20091;-53
2022/06/27 07:32:09;;;;;;;16.20;10.30;;;;;;;-147.27;100.00;65176.34;4960155;28;20070;-53
2022/06/27 07:34:36;;;;;;;21.35;12.10;;;;;;;-147.27;100.00;65176.34;4974087;28;20085;-53
2022/06/27 07:37:01;;;;;;;;;;;;;;;-147.27;100.00;65176.34;4976917;28;20031;-52
2022/06/27 07:39:27;;;;;;;17.57;10.07;;;;;;;-147.27;100.00;65176.34;4975158;28;19914;-54
2022/06/27 07:41:54;;;;;;;15.85;10.13;;;;;;;-147.27;100.00;65176.34;4976892;28;20060;-50
2022/06/27 07:44:19;;;;;;;18.87;10.90;;;;;;;-147.27;100.00;65176.34;4974636;28;20047;-53
2022/06/27 07:46:45;;;;;;;31.27;14.45;;;;;;;-147.27;100.00;65176.34;4977083;28;20035;-52
2022/06/27 07:49:11;;;;;;;21.27;11.43;;;;;;;-147.27;100.00;65176.34;4975166;28;20050;-55
2022/06/27 07:51:36;;;;;;;16.95;10.27;;;;;;;-147.27;100.00;65176.34;4976249;28;20039;-50
2022/06/27 07:54:02;;;;;;;23.80;11.30;;;;;;;-147.27;100.00;65176.34;4977348;28;20170;-55
2022/06/27 07:56:28;;;;;;;20.98;11.02;;;;;;;-147.27;100.00;65176.34;4975331;28;20074;-52
2022/06/27 07:58:54;;;;;;;;;;;;;;;-147.27;100.00;65176.34;4976697;28;20050;-54
2022/06/27 08:01:20;;;;;;;19.90;11.17;;;;;;;-147.27;100.00;65176.34;4975438;28;19918;-54
2022/06/27 08:03:49;;;;;;;;;;;;;;;-147.27;100.00;65176.34;4977250;28;20125;-54
2022/06/27 08:06:15;;;;;;;12.07;7.60;;;;;;;-147.27;100.00;65176.34;4975680;28;19929;-54
2022/06/27 08:08:44;;;;;;;17.50;9.63;;;;;;;-147.27;100.00;65176.34;4979669;28;20102;-52
2022/06/27 08:11:13;;;;;;;19.50;11.07;;;;;;;-147.27;100.00;65176.34;4977699;28;20035;-53
2022/06/27 08:13:40;;;;;;;16.63;8.60;;;;;;;-147.27;100.00;65176.34;4980284;28;20040;-52
2022/06/27 08:16:08;;;;;;;18.43;8.33;;;;;;;-147.27;100.00;65176.34;4980298;28;20027;-52
2022/06/27 08:18:35;;;;;;;14.70;9.80;;;;;;;-147.27;100.00;65176.34;4986759;28;20047;-53
2022/06/27 08:21:01;;;;;;;17.10;9.40;;;;;;;-147.27;100.00;65176.34;4978556;28;20035;-50
2022/06/27 08:23:27;;;;;;;;;;;;;;;-147.27;100.00;65176.34;4981196;28;20152;-49
2022/06/27 08:25:54;;;;;;;24.77;11.63;;;;;;;-147.27;100.00;65176.34;4979984;28;19985;-50
2022/06/27 08:28:20;;;;;;;21.90;11.73;;;;;;;-147.27;100.00;65176.34;4978323;28;20050;-48
2022/06/27 08:30:47;;;;;;;25.80;12.87;;;;;;;-147.27;100.00;65176.34;4970247;28;20030;-51
2022/06/27 08:33:13;;;;;;;34.10;15.50;;;;;;;-147.27;100.00;65176.34;4968626;28;20070;-51
2022/06/27 08:35:47;;;;;;;19.90;10.88;;;;;;;-147.27;100.00;65176.34;4981979;28;20074;-49
2022/06/27 08:38:13;;;;;;;24.33;13.27;;;;;;;-147.27;100.00;65176.34;4980884;28;20035;-50
2022/06/27 08:40:38;;;;;;;22.00;12.10;;;;;;;-147.27;100.00;65176.34;4977597;28;20038;-53
2022/06/27 08:43:04;;;;;;;24.48;13.57;;;;;;;-147.27;100.00;65176.34;4977424;28;20039;-51
2022/06/27 08:45:29;;;;;;;;;;;;;;;-147.27;100.00;65176.34;4980631;28;20035;-49
2022/06/27 08:47:58;;;;;;;25.20;11.70;;;;;;;-147.27;100.00;65176.34;4974833;28;19914;-50
2022/06/27 08:50:25;;;;;;;23.47;10.50;;;;;;;-147.27;100.00;65176.34;4976387;28;20049;-50
2022/06/27 08:52:52;;;;;;;25.67;10.27;;;;;;;-147.27;100.00;65176.34;4977904;28;20035;-46
2022/06/27 08:55:18;;;;;;;19.00;9.87;;;;;;;-147.27;100.00;65176.34;4980336;28;20034;-52
2022/06/27 08:57:45;;;;;;;17.45;9.43;;;;;;;-147.27;100.00;65176.34;4974200;28;20039;-52
2022/06/27 09:00:14;;;;;;;16.30;9.07;;;;;;;-147.27;100.00;65176.34;4976426;28;20027;-54
2022/06/27 09:02:43;;;;;;;17.73;8.97;;;;;;;-147.27;100.00;65176.34;4980230;28;20031;-53
2022/06/27 09:05:22;;;;;;;14.10;7.50;;;;;;;-147.27;100.00;65176.34;4978598;28;20026;-50
2022/06/27 09:07:51;;;;;;;19.30;8.93;;;;;;;-147.27;100.00;65176.34;4981128;28;20042;-52
2022/06/27 09:10:32;;;;;;;20.13;9.73;;;;;;;-147.27;100.00;65176.34;4981936;28;20043;-51
2022/06/27 09:13:00;;;;;;;16.97;9.50;;;;;;;-147.27;100.00;65176.34;4982657;28;20033;-50
2022/06/27 09:15:57;;;;;;;17.07;8.80;;;;;;;-147.27;100.00;65176.34;4983993;28;20073;-50
2022/06/27 09:18:26;;;;;;;18.90;11.50;;;;;;;-147.27;100.00;65176.34;4977642;28;20074;-48
2022/06/27 09:20:54;;;;;;;25.47;13.07;;;;;;;-147.27;100.00;65176.34;4978959;28;20038;-48
2022/06/27 09:23:35;;;;;;;33.47;14.97;;;;;;;-147.27;100.00;65176.34;4980584;28;20051;-49
2022/06/27 09:26:03;;;;;;;19.70;12.63;;;;;;;-147.27;100.00;65176.34;4981808;28;20075;-49
2022/06/27 09:28:42;;;;;;;22.03;12.50;;;;;;;-147.27;100.00;65176.34;4980960;28;20034;-54
2022/06/27 09:31:27;;;;;;;17.63;10.57;;;;;;;-147.27;100.00;65176.34;4981477;28;20086;-48
2022/06/27 09:34:08;;;;;;;14.47;10.83;;;;;;;-147.27;100.00;65176.34;4983810;28;20062;-48
2022/06/27 09:36:35;;;;;;;23.23;11.37;;;;;;;-147.27;100.00;65176.34;4970691;28;20050;-50
2022/06/27 09:39:02;;;;;;;18.90;9.70;;;;;;;-147.27;100.00;65176.34;4973252;28;20031;-52
2022/06/27 09:41:32;;;;;;;16.80;9.90;;;;;;;-147.27;100.00;65176.34;4970541;28;20066;-48
2022/06/27 09:44:06;;;;;;;23.53;12.70;;;;;;;-147.27;100.00;65176.34;4978358;28;20031;-49
2022/06/27 09:46:36;;;;;;;17.63;10.33;;;;;;;-147.27;100.00;65176.34;4982294;28;20031;-50
2022/06/27 09:49:04;;;;;;;19.47;9.40;;;;;;;-147.27;100.00;65176.34;4983544;28;20035;-52
2022/06/27 09:51:32;;;;;;;17.27;9.50;;;;;;;-147.27;100.00;65176.34;4971109;28;20100;-50
2022/06/27 09:54:00;;;;;;;16.07;9.77;;;;;;;-147.27;100.00;65176.34;4970595;28;20039;-53
2022/06/27 09:56:29;;;;;;;16.20;10.00;;;;;;;-147.27;100.00;65176.34;4970959;28;20047;-53
2022/06/27 09:58:55;;;;;;;14.67;9.83;;;;;;;-147.27;100.00;65176.34;4967457;28;20053;-50
2022/06/27 10:01:21;;;;;;;17.07;10.10;;;;;;;-147.27;100.00;65176.34;4983865;28;20022;-52
2022/06/27 10:03:46;;;;;;;20.88;12.20;;;;;;;-147.27;100.00;65176.34;4981564;28;20065;-53
2022/06/27 10:06:14;;;;;;;16.23;9.77;;;;;;;-147.27;100.00;65176.34;4981030;28;20045;-50
2022/06/27 10:08:46;;;;;;;18.30;9.87;;;;;;;-147.27;100.00;65176.34;4981774;28;20031;-49
2022/06/27 10:11:12;;;;;;;19.80;9.80;;;;;;;-147.27;100.00;65176.34;4981760;28;20026;-52
2022/06/27 10:13:42;;;;;;;16.38;9.50;;;;;;;-147.27;100.00;65176.34;4982483;28;20095;-48
2022/06/27 10:16:12;;;;;;;18.37;9.87;;;;;;;-147.27;100.00;65176.34;4981103;28;20389;-51
2022/06/27 10:18:57;;;;;;;14.90;9.13;;;;;;;-147.27;100.00;65176.34;4983149;28;20086;-50
2022/06/27 10:21:42;;;;;;;16.70;9.47;;;;;;;-147.27;100.00;65176.34;4980021;28;20106;-48
2022/06/27 10:24:29;;;;;;;16.73;9.50;;;;;;;-147.27;100.00;65176.34;4979635;28;20038;-53
2022/06/27 10:27:00;;;;;;;17.90;9.95;;;;;;;-147.27;100.00;65176.34;4979225;28;20106;-51
2022/06/27 10:29:28;;;;;;;16.80;9.67;;;;;;;-147.27;100.00;65176.34;4978192;28;20047;-49
2022/06/27 10:31:54;;;;;;;17.07;10.70;;;;;;;-147.27;100.00;65176.34;4977718;28;20048;-51
2022/06/27 10:34:40;;;;;;;;;;;;;;;-147.27;100.00;65176.34;4983719;28;20070;-53
2022/06/27 10:37:21;;;;;;;17.87;10.60;;;;;;;-147.27;100.00;65176.34;4966597;28;19921;-50
2022/06/27 10:39:46;;;;;;;18.13;11.07;;;;;;;-147.27;100.00;65176.34;4981313;28;20039;-52
2022/06/27 10:42:44;;;;;;;16.47;10.30;;;;;;;-147.27;100.00;65176.34;4976174;28;20039;-51
2022/06/27 10:45:20;;;;;;;16.87;10.17;;;;;;;-147.27;100.00;65176.34;4984858;28;20162;-47
2022/06/27 10:47:54;;;;;;;18.30;8.97;;;;;;;-147.27;100.00;65176.34;4983391;28;20039;-53
2022/06/27 10:50:22;;;;;;;20.17;10.90;;;;;;;-147.27;100.00;65176.34;4982792;28;20056;-49
2022/06/27 10:52:49;;;;;;;17.87;10.67;;;;;;;-147.27;100.00;65176.34;4978943;28;20039;-52
2022/06/27 10:55:21;;;;;;;19.90;10.57;;;;;;;-147.27;100.00;65176.34;4976571;28;20050;-52
2022/06/27 10:57:47;;;;;;;16.90;10.70;;;;;;;-147.27;100.00;65176.34;4979485;28;20070;-50
2022/06/27 11:00:39;;;;;;;19.67;10.10;;;;;;;-147.27;100.00;65176.34;4974328;28;20036;-52
2022/06/27 11:03:06;;;;;;;17.83;9.83;;;;;;;-147.27;100.00;65176.34;4981740;28;20039;-48
2022/06/27 11:05:54;;;;;;;16.33;10.00;;;;;;;-147.27;100.00;65176.34;4972457;28;20050;-51
2022/06/27 11:08:22;;;;;;;16.13;9.37;;;;;;;-147.27;100.00;65176.34;4972057;28;20039;-50
2022/06/27 11:10:48;;;;;;;13.57;9.10;;;;;;;-147.27;100.00;65176.34;4979355;28;20061;-49
2022/06/27 11:13:37;;;;;;;17.10;8.80;;;;;;;-147.27;100.00;65176.34;4976869;28;20035;-52